Terminal Aerodrome Forecast
Issued by NWS

Home | Current Version | Previous Version | Text Only | Print | Product List | Glossary On
Versions: 1 2 3 4 5 6 7 8 9 10 11 12 13 14 15 16
000
FTUS43 KIWX 301736
TAFSBN
TAF
KSBN 301736Z 3018/0118 10012KT 6SM -RA BR SCT020 OVC040
     FM301900 09012G18KT 4SM -RA BR OVC010
     FM302100 09010KT 3SM -RA BR OVC006
     FM010400 06008KT 3SM BR OVC005
     FM011300 02006KT 6SM BR OVC012
     FM011500 02008KT P6SM BKN020=

USA.gov is the U.S. government's official web portal to all federal, state and local government web resources and services.